Time;durP1;ratioP1;P1;durP2;ratioP2;P2;SDS_P1;SDS_P2;PMS_P1;PMS_P2;Temp;Humidity;BMP_temperature;BMP_pressure;BME280_temperature;BME280_humidity;BME280_pressure;Samples;Min_cycle;Max_cycle;Signal;HPM_P1;HPM_P2
2021/04/06 00:00:45;;;;;;;6.72;4.10;;;3.80;99.90;;;;;;2569395;23;20409;-73
2021/04/06 00:01:48;;;;;;;6.68;3.85;;;3.80;99.90;;;;;;2569625;23;20519;-73
2021/04/06 00:02:52;;;;;;;7.70;4.28;;;3.80;99.90;;;;;;2567461;23;20018;-73
2021/04/06 00:03:55;;;;;;;7.53;4.55;;;3.80;99.90;;;;;;2568731;23;20070;-73
2021/04/06 00:04:58;;;;;;;8.63;4.45;;;3.70;99.90;;;;;;2569426;23;20036;-74
2021/04/06 00:06:02;;;;;;;7.20;3.80;;;3.70;99.90;;;;;;2569258;23;20012;-74
2021/04/06 00:07:06;;;;;;;5.28;3.70;;;3.70;99.90;;;;;;2569519;23;20099;-73
2021/04/06 00:08:08;;;;;;;11.10;4.25;;;3.70;99.90;;;;;;2569373;23;20410;-73
2021/04/06 00:09:13;;;;;;;9.38;3.70;;;3.70;99.90;;;;;;2569404;23;20008;-73
2021/04/06 00:10:22;;;;;;;8.70;3.60;;;3.70;99.90;;;;;;2569657;23;20337;-73
2021/04/06 00:11:23;;;;;;;5.88;2.95;;;3.70;99.90;;;;;;2567754;23;20008;-73
2021/04/06 00:12:26;;;;;;;6.32;2.83;;;3.70;99.90;;;;;;2568089;23;20079;-73
2021/04/06 00:13:31;;;;;;;8.57;3.25;;;3.70;99.90;;;;;;2569417;23;19997;-73
2021/04/06 00:14:33;;;;;;;7.32;3.42;;;3.70;99.90;;;;;;2569625;23;20020;-73
2021/04/06 00:15:36;;;;;;;5.80;3.30;;;3.70;99.90;;;;;;2569322;23;20463;-73
2021/04/06 00:16:38;;;;;;;7.93;4.43;;;3.70;99.90;;;;;;2569381;23;20370;-73
2021/04/06 00:17:43;;;;;;;9.52;4.47;;;3.70;99.90;;;;;;2568658;23;20005;-74
2021/04/06 00:18:45;;;;;;;7.60;3.85;;;3.70;99.90;;;;;;2569442;23;20456;-75
2021/04/06 00:19:47;;;;;;;8.77;4.20;;;3.70;99.90;;;;;;2568248;23;20000;-74
2021/04/06 00:20:50;;;;;;;6.68;3.63;;;3.70;99.90;;;;;;2568719;23;20001;-73
2021/04/06 00:21:57;;;;;;;6.38;2.97;;;3.70;99.90;;;;;;2568124;23;20083;-73
2021/04/06 00:23:01;;;;;;;6.22;3.28;;;3.80;99.90;;;;;;2568202;23;20004;-73
2021/04/06 00:24:03;;;;;;;8.50;3.15;;;3.80;99.90;;;;;;2568931;23;19997;-74
2021/04/06 00:25:11;;;;;;;8.40;3.42;;;3.80;99.90;;;;;;2569140;23;20413;-74
2021/04/06 00:26:11;;;;;;;6.45;3.00;;;3.80;99.90;;;;;;2569384;23;19997;-74
2021/04/06 00:27:15;;;;;;;8.38;3.67;;;3.80;99.90;;;;;;2569409;23;20072;-73
2021/04/06 00:28:24;;;;;;;7.32;3.03;;;3.80;99.90;;;;;;2569073;23;20131;-74
2021/04/06 00:29:26;;;;;;;6.90;3.25;;;3.80;99.90;;;;;;2568370;23;20088;-74
2021/04/06 00:30:33;;;;;;;6.25;3.28;;;3.80;99.90;;;;;;2569536;23;19997;-73
2021/04/06 00:31:33;;;;;;;7.97;2.92;;;3.80;99.90;;;;;;2569298;23;20004;-73
2021/04/06 00:32:35;;;;;;;7.60;2.58;;;3.80;99.90;;;;;;2568509;23;20028;-73
2021/04/06 00:33:39;;;;;;;6.10;2.67;;;3.80;99.90;;;;;;2568159;23;20000;-73
2021/04/06 00:34:41;;;;;;;4.15;2.67;;;3.80;99.90;;;;;;2569053;23;20417;-74
2021/04/06 00:35:42;;;;;;;4.75;2.65;;;3.80;99.90;;;;;;2569052;23;20469;-74
2021/04/06 00:36:50;;;;;;;6.85;2.70;;;3.80;99.90;;;;;;2569456;23;20325;-74
2021/04/06 00:37:52;;;;;;;5.88;2.80;;;3.80;99.90;;;;;;2569108;23;20005;-73
2021/04/06 00:38:53;;;;;;;6.75;2.35;;;3.80;99.90;;;;;;2568536;23;20070;-73
2021/04/06 00:40:00;;;;;;;6.20;2.47;;;3.80;99.90;;;;;;2568499;23;20030;-73
2021/04/06 00:41:05;;;;;;;6.22;2.40;;;3.80;99.90;;;;;;2569128;23;20012;-73
2021/04/06 00:42:11;;;;;;;2.65;1.88;;;3.80;99.90;;;;;;2568833;23;20009;-73
2021/04/06 00:43:12;;;;;;;2.83;2.05;;;3.80;99.90;;;;;;2568409;23;20009;-73
2021/04/06 00:44:14;;;;;;;4.95;2.40;;;3.80;99.90;;;;;;2568350;23;20072;-73
2021/04/06 00:45:21;;;;;;;5.85;2.20;;;3.80;99.90;;;;;;2568871;23;20032;-73
2021/04/06 00:46:26;;;;;;;6.95;2.92;;;3.80;99.90;;;;;;2568439;23;20725;-73
2021/04/06 00:47:29;;;;;;;6.72;2.88;;;3.80;99.90;;;;;;2568775;23;20004;-73
2021/04/06 00:48:31;;;;;;;5.28;2.40;;;3.80;99.90;;;;;;2569189;23;20012;-73
2021/04/06 00:49:35;;;;;;;8.00;2.35;;;3.80;99.90;;;;;;2569241;23;20001;-73
2021/04/06 00:50:37;;;;;;;9.90;2.55;;;3.80;99.90;;;;;;2569323;23;20007;-73
2021/04/06 00:51:39;;;;;;;4.93;2.13;;;3.80;99.90;;;;;;2568957;23;20016;-74
2021/04/06 00:52:45;;;;;;;6.40;2.45;;;3.80;99.90;;;;;;2568677;23;20427;-73
2021/04/06 00:53:57;;;;;;;6.30;2.38;;;3.80;99.90;;;;;;2569097;23;19997;-73
2021/04/06 00:54:58;;;;;;;6.78;2.53;;;3.80;99.90;;;;;;2569068;23;20008;-73
2021/04/06 00:55:58;;;;;;;5.15;2.38;;;3.80;99.90;;;;;;2569011;23;20001;-73
2021/04/06 00:56:59;;;;;;;6.82;2.83;;;3.80;99.90;;;;;;2568960;23;20076;-73
2021/04/06 00:58:00;;;;;;;4.90;2.35;;;3.80;99.90;;;;;;2568125;23;20012;-73
2021/04/06 00:59:04;;;;;;;5.25;2.10;;;3.80;99.90;;;;;;2567953;23;20005;-73
2021/04/06 01:00:08;;;;;;;7.07;2.85;;;3.80;99.90;;;;;;2569296;23;20004;-73
2021/04/06 01:01:10;;;;;;;6.22;2.40;;;3.80;99.90;;;;;;2568957;23;20357;-73
2021/04/06 01:02:12;;;;;;;5.45;3.00;;;3.80;99.90;;;;;;2565705;23;20495;-73
2021/04/06 01:03:18;;;;;;;7.43;2.33;;;3.80;99.90;;;;;;2568373;23;20005;-73
2021/04/06 01:04:22;;;;;;;7.13;2.15;;;3.80;99.90;;;;;;2568271;23;20008;-73
2021/04/06 01:05:22;;;;;;;5.78;2.00;;;3.80;99.90;;;;;;2569038;23;20484;-73
2021/04/06 01:06:23;;;;;;;7.50;2.25;;;3.80;99.90;;;;;;2569271;23;20329;-73
2021/04/06 01:07:24;;;;;;;5.85;2.92;;;3.80;99.90;;;;;;2569264;23;20015;-73
2021/04/06 01:08:33;;;;;;;7.13;2.10;;;3.80;99.90;;;;;;2567946;23;20056;-73
2021/04/06 01:09:37;;;;;;;7.55;2.60;;;3.80;99.90;;;;;;2568284;23;20005;-73
2021/04/06 01:10:37;;;;;;;4.05;2.13;;;3.80;99.90;;;;;;2568523;23;20012;-73
2021/04/06 01:11:39;;;;;;;8.35;2.08;;;3.80;99.90;;;;;;2567857;23;20032;-72
2021/04/06 01:12:39;;;;;;;4.18;1.95;;;3.80;99.90;;;;;;2566991;23;20036;-73
2021/04/06 01:13:40;;;;;;;6.55;2.15;;;3.80;99.90;;;;;;2567863;23;20001;-73
2021/04/06 01:14:44;;;;;;;6.93;2.30;;;3.80;99.90;;;;;;2568640;23;20054;-73
2021/04/06 01:15:45;;;;;;;2.80;1.42;;;3.80;99.90;;;;;;2568461;23;19997;-73
2021/04/06 01:16:45;;;;;;;6.07;2.50;;;3.80;99.90;;;;;;2568872;23;20005;-73
2021/04/06 01:17:46;;;;;;;4.85;2.63;;;3.80;99.90;;;;;;2568952;23;20008;-73
2021/04/06 01:18:48;;;;;;;5.18;2.38;;;3.80;99.90;;;;;;2568837;23;20020;-73
2021/04/06 01:19:49;;;;;;;6.30;2.60;;;3.80;99.90;;;;;;2568256;23;20000;-73
2021/04/06 01:20:51;;;;;;;3.67;2.10;;;3.80;99.90;;;;;;2568440;23;20068;-72
2021/04/06 01:21:52;;;;;;;5.45;2.75;;;3.80;99.90;;;;;;2568250;23;20075;-73
2021/04/06 01:22:56;;;;;;;4.78;2.28;;;3.90;99.90;;;;;;2567843;23;20512;-73
2021/04/06 01:23:56;;;;;;;6.80;2.63;;;3.90;99.90;;;;;;2568518;23;19996;-73
2021/04/06 01:24:57;;;;;;;5.05;2.38;;;3.90;99.90;;;;;;2568948;23;20040;-73
2021/04/06 01:25:58;;;;;;;7.22;2.58;;;3.90;99.90;;;;;;2568487;23;20001;-73
2021/04/06 01:27:00;;;;;;;5.00;2.30;;;3.90;99.90;;;;;;2568168;23;20009;-73
2021/04/06 01:28:06;;;;;;;7.88;2.30;;;3.90;99.90;;;;;;2567370;23;20016;-73
2021/04/06 01:29:06;;;;;;;7.78;2.20;;;3.90;99.90;;;;;;2568012;23;20022;-73
2021/04/06 01:30:09;;;;;;;6.60;1.80;;;3.90;99.90;;;;;;2568322;23;20088;-72
2021/04/06 01:31:10;;;;;;;5.15;1.80;;;4.00;99.90;;;;;;2568625;23;20484;-72
2021/04/06 01:32:12;;;;;;;3.78;1.58;;;3.90;99.90;;;;;;2567668;23;20321;-72
2021/04/06 01:33:18;;;;;;;5.20;1.60;;;4.00;99.90;;;;;;2568494;23;20449;-72
2021/04/06 01:34:19;;;;;;;7.60;2.30;;;4.00;99.90;;;;;;2568139;23;20029;-72
2021/04/06 01:35:20;;;;;;;7.35;2.00;;;3.90;99.90;;;;;;2568922;23;20024;-72
2021/04/06 01:36:26;;;;;;;6.50;2.00;;;3.90;99.90;;;;;;2568282;23;20436;-73
2021/04/06 01:37:28;;;;;;;5.63;1.50;;;3.90;99.90;;;;;;2568216;23;20080;-72
2021/04/06 01:38:29;;;;;;;8.25;1.92;;;3.90;99.90;;;;;;2568412;23;20008;-73
2021/04/06 01:39:30;;;;;;;8.52;1.95;;;3.90;99.90;;;;;;2568500;23;20067;-72
2021/04/06 01:40:31;;;;;;;3.45;1.48;;;3.90;99.90;;;;;;2568495;23;20009;-72
2021/04/06 01:41:32;;;;;;;6.45;1.88;;;3.90;99.90;;;;;;2568405;23;20063;-73
2021/04/06 01:42:36;;;;;;;9.35;2.20;;;3.90;99.90;;;;;;2566971;23;20046;-72
2021/04/06 01:43:46;;;;;;;8.30;2.05;;;3.90;99.90;;;;;;2567724;23;20004;-72
2021/04/06 01:44:49;;;;;;;6.57;2.13;;;3.90;99.90;;;;;;2569036;23;19996;-72
2021/04/06 01:45:55;;;;;;;7.72;1.95;;;3.90;99.90;;;;;;2569110;23;20001;-72
2021/04/06 01:46:57;;;;;;;7.40;2.03;;;3.90;99.90;;;;;;2568784;23;20256;-72
2021/04/06 01:47:58;;;;;;;8.77;2.17;;;4.00;99.90;;;;;;2568047;23;20012;-72
2021/04/06 01:49:00;;;;;;;7.93;2.30;;;4.00;99.90;;;;;;2567627;23;20000;-72
2021/04/06 01:50:01;;;;;;;6.07;2.30;;;4.00;99.90;;;;;;2567736;23;20008;-72
2021/04/06 01:51:02;;;;;;;8.20;2.55;;;4.00;99.90;;;;;;2568388;23;20004;-72
2021/04/06 01:52:03;;;;;;;4.72;1.90;;;4.00;99.90;;;;;;2568694;23;20001;-72
2021/04/06 01:53:04;;;;;;;9.40;2.53;;;4.00;99.90;;;;;;2568088;23;20076;-72
2021/04/06 01:54:07;;;;;;;6.43;1.85;;;4.00;99.90;;;;;;2568626;23;20004;-72
2021/04/06 01:55:15;;;;;;;8.07;1.92;;;4.00;99.90;;;;;;2567800;23;20465;-72
2021/04/06 01:56:23;;;;;;;5.72;1.88;;;4.00;99.90;;;;;;2568034;23;20075;-72
2021/04/06 01:57:30;;;;;;;4.13;1.65;;;4.00;99.90;;;;;;2567494;23;20099;-72
2021/04/06 01:58:32;;;;;;;7.10;2.63;;;4.00;99.90;;;;;;2567610;23;19996;-72
2021/04/06 01:59:45;;;;;;;12.07;2.50;;;4.00;99.90;;;;;;2568636;23;20007;-72
2021/04/06 02:01:53;;;;;;;12.20;3.10;;;4.00;99.90;;;;;;2569349;23;20005;-72
2021/04/06 02:02:59;;;;;;;10.70;2.10;;;4.00;99.90;;;;;;2569418;23;20377;-72
2021/04/06 02:04:03;;;;;;;11.15;2.70;;;4.00;99.90;;;;;;2568689;23;20008;-72
2021/04/06 02:05:08;;;;;;;8.18;2.80;;;4.00;99.90;;;;;;2569019;23;20149;-72
2021/04/06 02:06:10;;;;;;;9.27;1.77;;;4.00;99.90;;;;;;2570114;23;20092;-72
2021/04/06 02:07:14;;;;;;;9.93;2.40;;;4.00;99.90;;;;;;2570020;23;20004;-72
2021/04/06 02:08:18;;;;;;;8.65;2.20;;;4.00;99.90;;;;;;2568761;23;20015;-72
2021/04/06 02:09:20;;;;;;;4.40;2.13;;;4.00;99.90;;;;;;2569408;23;20012;-72
2021/04/06 02:10:22;;;;;;;6.47;2.10;;;4.00;99.90;;;;;;2569111;23;20005;-72
2021/04/06 02:11:26;;;;;;;4.75;1.73;;;4.00;99.90;;;;;;2569558;23;20437;-72
2021/04/06 02:12:27;;;;;;;9.75;2.38;;;4.00;99.90;;;;;;2568468;23;20012;-72
2021/04/06 02:13:27;;;;;;;11.60;2.83;;;4.00;99.90;;;;;;2569807;23;20001;-72
2021/04/06 02:14:30;;;;;;;9.07;2.40;;;4.00;99.90;;;;;;2570069;23;20080;-72
2021/04/06 02:15:30;;;;;;;7.65;2.17;;;4.00;99.90;;;;;;2569272;23;20001;-72
2021/04/06 02:17:04;;;;;;;7.72;2.17;;;4.00;99.90;;;;;;2556513;23;20093;-72
2021/04/06 02:18:04;;;;;;;7.57;2.00;;;4.00;99.90;;;;;;2552357;23;20009;-72
2021/04/06 02:19:05;;;;;;;7.22;2.17;;;4.00;99.90;;;;;;2561605;23;20032;-72
2021/04/06 02:20:06;;;;;;;5.70;1.90;;;4.00;99.90;;;;;;2569472;23;20496;-72
2021/04/06 02:21:07;;;;;;;9.82;1.80;;;4.00;99.90;;;;;;2570015;23;20008;-72
2021/04/06 02:22:19;;;;;;;8.50;2.47;;;4.00;99.90;;;;;;2569538;23;20083;-72
2021/04/06 02:23:20;;;;;;;6.82;2.58;;;4.00;99.90;;;;;;2570232;23;20009;-72
2021/04/06 02:24:24;;;;;;;7.05;2.10;;;4.00;99.90;;;;;;2570173;23;20417;-72
2021/04/06 02:25:30;;;;;;;9.23;2.03;;;4.00;99.90;;;;;;2570039;23;20091;-72
2021/04/06 02:26:30;;;;;;;4.72;2.03;;;4.00;99.90;;;;;;2569935;23;20028;-72
2021/04/06 02:27:34;;;;;;;9.43;2.13;;;4.00;99.90;;;;;;2569007;23;20083;-72
2021/04/06 02:28:35;;;;;;;8.40;2.45;;;4.00;99.90;;;;;;2570182;23;20364;-72
2021/04/06 02:30:08;;;;;;;5.47;1.80;;;4.00;99.90;;;;;;2570030;23;20001;-72
2021/04/06 02:31:09;;;;;;;5.28;1.63;;;4.00;99.90;;;;;;2558234;23;20494;-72
2021/04/06 02:32:12;;;;;;;6.78;1.63;;;3.90;99.90;;;;;;2569575;23;20367;-72
2021/04/06 02:33:16;;;;;;;10.68;2.78;;;4.00;99.90;;;;;;2570237;23;19997;-72
2021/04/06 02:34:17;;;;;;;4.68;1.70;;;4.00;99.90;;;;;;2570110;23;20122;-72
2021/04/06 02:35:17;;;;;;;6.32;1.88;;;4.00;99.90;;;;;;2570301;23;20008;-72
2021/04/06 02:36:18;;;;;;;7.60;2.38;;;4.00;99.90;;;;;;2569814;23;20030;-72
2021/04/06 02:37:26;;;;;;;10.13;2.22;;;4.10;99.90;;;;;;2569512;23;20012;-72
2021/04/06 02:38:32;;;;;;;8.40;2.15;;;4.00;99.90;;;;;;2570158;23;20360;-72
2021/04/06 02:39:37;;;;;;;6.85;1.98;;;4.10;99.90;;;;;;2570022;23;20008;-72
2021/04/06 02:40:38;;;;;;;7.80;2.47;;;4.10;99.90;;;;;;2569002;23;20008;-72
2021/04/06 02:41:39;;;;;;;8.73;2.08;;;4.10;99.90;;;;;;2568976;23;20040;-72
2021/04/06 02:42:42;;;;;;;7.65;2.58;;;4.10;99.90;;;;;;2569465;23;20008;-72
2021/04/06 02:43:43;;;;;;;3.80;1.60;;;4.10;99.90;;;;;;2570303;23;19997;-72
2021/04/06 02:44:44;;;;;;;4.13;2.03;;;4.10;99.90;;;;;;2569138;23;20011;-72
2021/04/06 02:45:45;;;;;;;7.00;2.83;;;4.10;99.90;;;;;;2569195;23;20451;-72
2021/04/06 02:46:51;;;;;;;9.35;2.67;;;4.10;99.90;;;;;;2569159;23;20332;-71
2021/04/06 02:48:07;;;;;;;9.18;2.60;;;4.10;99.90;;;;;;2568985;23;20000;-71
2021/04/06 02:49:07;;;;;;;7.70;1.83;;;4.10;99.90;;;;;;2570691;23;20005;-71
2021/04/06 02:50:10;;;;;;;11.50;2.58;;;4.10;99.90;;;;;;2569902;23;20072;-71
2021/04/06 02:51:12;;;;;;;9.48;2.50;;;4.10;99.90;;;;;;2570149;23;20000;-71
2021/04/06 02:52:15;;;;;;;7.38;2.17;;;4.10;99.90;;;;;;2569208;23;20122;-72
2021/04/06 02:53:17;;;;;;;7.85;2.22;;;4.10;99.90;;;;;;2570276;23;20003;-72
2021/04/06 02:54:17;;;;;;;9.77;2.67;;;4.10;99.90;;;;;;2569483;23;20008;-72
2021/04/06 02:55:18;;;;;;;10.13;3.58;;;4.10;99.90;;;;;;2570201;23;20039;-72
2021/04/06 02:56:35;;;;;;;7.07;3.35;;;4.10;99.90;;;;;;2569303;23;20016;-72
2021/04/06 02:57:55;;;;;;;11.73;3.38;;;4.10;99.90;;;;;;2570825;23;20000;-72
2021/04/06 02:59:21;;;;;;;11.95;3.10;;;4.10;99.90;;;;;;2570112;23;19996;-71
2021/04/06 03:00:27;;;;;;;12.38;4.18;;;4.10;99.90;;;;;;2569986;23;20028;-71
2021/04/06 03:01:31;;;;;;;9.80;3.78;;;4.10;99.90;;;;;;2570200;23;20015;-71
2021/04/06 03:02:41;;;;;;;9.40;4.15;;;4.10;99.90;;;;;;2568183;23;20417;-72
2021/04/06 03:03:42;;;;;;;11.80;3.65;;;4.10;99.90;;;;;;2568824;23;20291;-71
2021/04/06 03:04:43;;;;;;;11.77;4.45;;;4.10;99.90;;;;;;2568709;23;20009;-72
2021/04/06 03:05:44;;;;;;;10.02;4.72;;;4.10;99.90;;;;;;2568699;23;20015;-72
2021/04/06 03:06:45;;;;;;;11.55;4.13;;;4.10;99.90;;;;;;2568069;23;20031;-71
2021/04/06 03:07:46;;;;;;;9.68;4.28;;;4.10;99.90;;;;;;2568843;23;20412;-72
2021/04/06 03:08:47;;;;;;;13.85;5.28;;;4.10;99.90;;;;;;2567464;23;20503;-71
2021/04/06 03:09:58;;;;;;;9.27;4.63;;;4.10;99.90;;;;;;2568493;23;20452;-71
2021/04/06 03:11:00;;;;;;;11.40;4.65;;;4.10;99.90;;;;;;2568695;23;20421;-71
2021/04/06 03:12:00;;;;;;;11.57;4.85;;;4.10;99.90;;;;;;2568086;23;20036;-71
2021/04/06 03:13:13;;;;;;;8.90;4.40;;;4.10;99.90;;;;;;2567367;23;20008;-71
2021/04/06 03:14:14;;;;;;;13.23;4.90;;;4.10;99.90;;;;;;2568924;23;20008;-71
2021/04/06 03:15:24;;;;;;;6.43;4.22;;;4.10;99.90;;;;;;2568978;23;19997;-71
2021/04/06 03:16:25;;;;;;;11.52;5.30;;;4.10;99.90;;;;;;2567438;23;20001;-72
2021/04/06 03:17:26;;;;;;;13.05;6.00;;;4.10;99.90;;;;;;2568013;23;20005;-71
2021/04/06 03:18:38;;;;;;;8.73;4.70;;;4.10;99.90;;;;;;2568947;23;20388;-71
2021/04/06 03:19:38;;;;;;;8.32;4.68;;;4.10;99.90;;;;;;2567665;23;20004;-71
2021/04/06 03:20:41;;;;;;;11.55;5.20;;;4.10;99.90;;;;;;2568938;23;20067;-71
2021/04/06 03:21:41;;;;;;;10.73;5.47;;;4.10;99.90;;;;;;2568740;23;20032;-71
2021/04/06 03:22:42;;;;;;;12.02;6.82;;;4.20;99.90;;;;;;2567302;23;20015;-71
2021/04/06 03:23:47;;;;;;;9.73;5.15;;;4.10;99.90;;;;;;2568003;23;20452;-71
2021/04/06 03:24:48;;;;;;;13.57;5.10;;;4.20;99.90;;;;;;2568770;23;20008;-71
2021/04/06 03:25:49;;;;;;;13.43;4.55;;;4.20;99.90;;;;;;2568727;23;20010;-71
2021/04/06 03:26:50;;;;;;;12.98;5.28;;;4.20;99.90;;;;;;2569629;23;20000;-71
2021/04/06 03:27:52;;;;;;;13.68;5.07;;;4.20;99.90;;;;;;2569158;23;20076;-71
2021/04/06 03:28:56;;;;;;;14.95;5.18;;;4.20;99.90;;;;;;2569678;23;19992;-71
2021/04/06 03:29:57;;;;;;;14.88;5.28;;;4.20;99.90;;;;;;2568082;23;20043;-72
2021/04/06 03:31:08;;;;;;;9.25;4.10;;;4.10;99.90;;;;;;2569200;23;20075;-71
2021/04/06 03:32:09;;;;;;;12.73;5.28;;;4.20;99.90;;;;;;2568444;23;20425;-71
2021/04/06 03:33:12;;;;;;;12.73;5.22;;;4.20;99.90;;;;;;2569119;23;20476;-71
2021/04/06 03:34:13;;;;;;;14.45;5.07;;;4.10;99.90;;;;;;2568460;23;20009;-71
2021/04/06 03:35:13;;;;;;;13.48;4.25;;;4.10;99.90;;;;;;2569525;23;20005;-71
2021/04/06 03:36:25;;;;;;;11.90;4.07;;;4.10;99.90;;;;;;2568805;23;20007;-71
2021/04/06 03:37:28;;;;;;;12.73;4.60;;;4.20;99.90;;;;;;2569522;23;20456;-71
2021/04/06 03:38:29;;;;;;;9.88;3.60;;;4.20;99.90;;;;;;2568866;23;20001;-71
2021/04/06 03:39:32;;;;;;;13.93;4.07;;;4.10;99.90;;;;;;2568894;23;20087;-71
2021/04/06 03:40:34;;;;;;;11.82;4.53;;;4.10;99.90;;;;;;2569167;23;20005;-71
2021/04/06 03:41:35;;;;;;;9.25;3.60;;;4.10;99.90;;;;;;2568990;23;20032;-71
2021/04/06 03:42:36;;;;;;;15.85;4.55;;;4.20;99.90;;;;;;2568294;23;20015;-71
2021/04/06 03:43:40;;;;;;;11.25;4.25;;;4.10;99.90;;;;;;2568843;23;20001;-71
2021/04/06 03:44:41;;;;;;;13.30;4.53;;;4.10;99.90;;;;;;2568807;23;20204;-71
2021/04/06 03:45:59;;;;;;;14.68;3.72;;;4.10;99.90;;;;;;2568931;23;20004;-71
2021/04/06 03:47:04;;;;;;;14.27;4.03;;;4.10;99.90;;;;;;2569038;23;20058;-71
2021/04/06 03:48:05;;;;;;;10.77;3.60;;;4.10;99.90;;;;;;2568817;23;20009;-71
2021/04/06 03:49:16;;;;;;;11.68;4.50;;;4.10;99.90;;;;;;2569026;23;20016;-71
2021/04/06 03:50:32;;;;;;;12.93;4.35;;;4.10;99.90;;;;;;2569191;23;20054;-71
2021/04/06 03:51:33;;;;;;;9.00;3.70;;;4.10;99.90;;;;;;2569230;23;20064;-71
2021/04/06 03:52:33;;;;;;;13.77;4.38;;;4.00;99.90;;;;;;2567758;23;20045;-72
2021/04/06 03:53:42;;;;;;;15.68;4.38;;;4.10;99.90;;;;;;2569243;23;20024;-71
2021/04/06 03:54:47;;;;;;;12.52;4.18;;;4.10;99.90;;;;;;2568981;23;20027;-71
2021/04/06 03:56:07;;;;;;;11.77;4.53;;;4.10;99.90;;;;;;2569382;23;19996;-72
2021/04/06 03:57:52;;;;;;;15.43;4.10;;;4.10;99.90;;;;;;2568583;23;20009;-71
2021/04/06 03:58:58;;;;;;;11.75;4.63;;;4.00;99.90;;;;;;2562076;23;20176;-71
2021/04/06 03:59:59;;;;;;;10.75;4.25;;;4.00;99.90;;;;;;2569234;23;20027;-71
2021/04/06 04:00:59;;;;;;;12.13;3.75;;;4.00;99.90;;;;;;2568433;23;20365;-71
2021/04/06 04:02:01;;;;;;;15.50;4.95;;;4.10;99.90;;;;;;2568886;23;20008;-71
2021/04/06 04:03:02;;;;;;;13.23;4.78;;;4.00;99.90;;;;;;2568145;23;20032;-71
2021/04/06 04:04:02;;;;;;;15.27;4.43;;;4.00;99.90;;;;;;2568621;23;20001;-71
2021/04/06 04:05:04;;;;;;;16.65;4.10;;;4.00;99.90;;;;;;2568430;23;20317;-71
2021/04/06 04:06:05;;;;;;;16.77;4.57;;;4.00;99.90;;;;;;2569257;23;20449;-71
2021/04/06 04:07:10;;;;;;;11.32;4.35;;;4.10;99.90;;;;;;2568881;23;20004;-71
2021/04/06 04:08:11;;;;;;;10.63;3.50;;;4.00;99.90;;;;;;2569183;23;20054;-71
2021/04/06 04:09:11;;;;;;;14.30;4.38;;;4.00;99.90;;;;;;2568819;23;20005;-71
2021/04/06 04:10:12;;;;;;;11.52;4.00;;;4.00;99.90;;;;;;2568306;23;20008;-71
2021/04/06 04:11:12;;;;;;;13.60;3.90;;;4.00;99.90;;;;;;2567714;23;20080;-71
2021/04/06 04:12:14;;;;;;;9.68;3.50;;;4.00;99.90;;;;;;2567139;23;20000;-71
2021/04/06 04:13:14;;;;;;;9.98;4.05;;;3.90;99.90;;;;;;2567923;23;20070;-71
2021/04/06 04:14:15;;;;;;;9.63;4.43;;;3.90;99.90;;;;;;2568979;23;20051;-71
2021/04/06 04:15:16;;;;;;;9.35;3.28;;;3.90;99.90;;;;;;2568674;23;20000;-71
2021/04/06 04:16:17;;;;;;;8.05;3.88;;;3.80;99.90;;;;;;2568989;23;20027;-71
2021/04/06 04:17:17;;;;;;;10.55;3.85;;;3.80;99.90;;;;;;2568822;23;20009;-71
2021/04/06 04:18:18;;;;;;;10.65;3.40;;;3.80;99.90;;;;;;2569185;23;20015;-71
2021/04/06 04:19:19;;;;;;;9.18;3.97;;;3.80;99.90;;;;;;2568067;23;20059;-71
2021/04/06 04:20:21;;;;;;;8.25;4.00;;;3.80;99.90;;;;;;2568173;23;20095;-71
2021/04/06 04:21:22;;;;;;;10.60;4.25;;;3.80;99.90;;;;;;2567829;23;20100;-71
2021/04/06 04:22:22;;;;;;;8.05;3.75;;;3.80;99.90;;;;;;2567139;23;20012;-71
2021/04/06 04:23:23;;;;;;;9.60;3.42;;;3.80;99.90;;;;;;2568718;23;20436;-71
2021/04/06 04:24:23;;;;;;;8.65;3.67;;;3.80;99.90;;;;;;2568631;23;20035;-72
2021/04/06 04:25:24;;;;;;;7.05;3.58;;;3.80;99.90;;;;;;2569169;23;20008;-72
2021/04/06 04:26:24;;;;;;;10.32;3.45;;;3.80;99.90;;;;;;2568728;23;20006;-72
2021/04/06 04:27:25;;;;;;;9.30;2.80;;;3.80;99.90;;;;;;2568840;23;20399;-71
2021/04/06 04:28:25;;;;;;;6.03;2.78;;;3.80;99.90;;;;;;2568230;23;20005;-71
2021/04/06 04:29:26;;;;;;;8.32;2.60;;;3.80;99.90;;;;;;2568372;23;20054;-71
2021/04/06 04:30:47;;;;;;;11.98;3.63;;;3.80;99.90;;;;;;2567850;23;20004;-71
2021/04/06 04:31:49;;;;;;;12.30;2.80;;;3.80;99.90;;;;;;2568281;23;20007;-71
2021/04/06 04:32:50;;;;;;;7.32;2.58;;;3.80;99.90;;;;;;2567929;23;20004;-72
2021/04/06 04:33:50;;;;;;;5.93;2.78;;;3.80;99.90;;;;;;2568818;23;20433;-72
2021/04/06 04:34:51;;;;;;;5.28;2.28;;;3.80;99.90;;;;;;2568576;23;20328;-72
2021/04/06 04:35:51;;;;;;;14.00;3.33;;;3.80;99.90;;;;;;2568934;23;19992;-72
2021/04/06 04:36:52;;;;;;;9.18;3.45;;;3.90;99.90;;;;;;2568374;23;20326;-72
2021/04/06 04:37:52;;;;;;;8.02;2.45;;;3.90;99.90;;;;;;2568334;23;20001;-72
2021/04/06 04:38:53;;;;;;;9.45;2.67;;;3.90;99.90;;;;;;2568653;23;20019;-72
2021/04/06 04:39:53;;;;;;;7.45;2.60;;;3.90;99.90;;;;;;2568755;23;20001;-72
2021/04/06 04:40:54;;;;;;;10.30;3.15;;;3.90;99.90;;;;;;2568661;23;20095;-72
2021/04/06 04:41:55;;;;;;;10.57;2.95;;;3.90;99.90;;;;;;2569239;23;20310;-72
2021/04/06 04:42:56;;;;;;;8.10;2.95;;;3.90;99.90;;;;;;2568040;23;20005;-72
2021/04/06 04:43:56;;;;;;;9.23;3.05;;;3.90;99.90;;;;;;2569081;23;19996;-72
2021/04/06 04:44:57;;;;;;;11.55;3.17;;;3.90;99.90;;;;;;2568993;23;20006;-72
2021/04/06 04:45:58;;;;;;;10.02;3.08;;;3.90;99.90;;;;;;2569307;23;20099;-72
2021/04/06 04:46:58;;;;;;;7.95;2.95;;;3.90;99.90;;;;;;2569238;23;20005;-72
2021/04/06 04:47:59;;;;;;;9.65;3.08;;;3.90;99.90;;;;;;2569063;23;20024;-71
2021/04/06 04:49:00;;;;;;;8.55;3.30;;;3.80;99.90;;;;;;2567869;23;20000;-71
2021/04/06 04:50:00;;;;;;;7.72;2.78;;;3.80;99.90;;;;;;2568710;23;20012;-71
2021/04/06 04:51:01;;;;;;;9.48;3.08;;;3.80;99.90;;;;;;2568961;23;19997;-72
2021/04/06 04:52:02;;;;;;;9.57;3.03;;;3.80;99.90;;;;;;2568039;23;20035;-72
2021/04/06 04:53:03;;;;;;;8.90;3.30;;;3.80;99.90;;;;;;2567567;23;20553;-72
2021/04/06 04:54:04;;;;;;;9.65;2.92;;;3.80;99.90;;;;;;2569191;23;20500;-72
2021/04/06 04:55:05;;;;;;;9.45;2.80;;;3.80;99.90;;;;;;2569007;23;20069;-72
2021/04/06 04:56:06;;;;;;;7.55;2.72;;;3.80;99.90;;;;;;2569225;23;20035;-72
2021/04/06 04:57:07;;;;;;;10.30;2.88;;;3.80;99.90;;;;;;2569119;23;20424;-72
2021/04/06 04:58:09;;;;;;;10.82;3.00;;;3.80;99.90;;;;;;2569172;23;20017;-72
2021/04/06 04:59:09;;;;;;;4.25;2.30;;;3.80;99.90;;;;;;2568501;23;20098;-71
2021/04/06 05:00:11;;;;;;;10.60;2.30;;;3.70;99.90;;;;;;2569344;23;20063;-72
2021/04/06 05:01:12;;;;;;;10.35;2.88;;;3.70;99.90;;;;;;2567845;23;20063;-72
2021/04/06 05:02:13;;;;;;;8.68;2.63;;;3.70;99.90;;;;;;2567274;23;20032;-72
2021/04/06 05:03:13;;;;;;;7.68;2.38;;;3.70;99.90;;;;;;2568814;23;20004;-72
2021/04/06 05:04:14;;;;;;;8.95;3.47;;;3.80;99.90;;;;;;2569284;23;20004;-72
2021/04/06 05:05:16;;;;;;;11.27;3.13;;;3.70;99.90;;;;;;2568350;23;20004;-72
2021/04/06 05:06:17;;;;;;;6.63;2.65;;;3.80;99.90;;;;;;2569139;23;20011;-71
2021/04/06 05:07:17;;;;;;;9.57;2.55;;;3.70;99.90;;;;;;2568842;23;20019;-72
2021/04/06 05:08:18;;;;;;;7.75;2.33;;;3.70;99.90;;;;;;2568809;23;20008;-72
2021/04/06 05:09:18;;;;;;;13.38;2.47;;;3.70;99.90;;;;;;2569213;23;20001;-72
2021/04/06 05:10:19;;;;;;;9.25;2.58;;;3.70;99.90;;;;;;2568514;23;19997;-72
2021/04/06 05:11:20;;;;;;;9.82;2.55;;;3.70;99.90;;;;;;2568010;23;20035;-72
2021/04/06 05:12:20;;;;;;;12.65;2.85;;;3.70;99.90;;;;;;2567601;23;20520;-71
2021/04/06 05:13:21;;;;;;;10.13;2.58;;;3.70;99.90;;;;;;2568892;23;20376;-72
2021/04/06 05:14:21;;;;;;;8.10;3.03;;;3.70;99.90;;;;;;2568773;23;20007;-72
2021/04/06 05:15:22;;;;;;;6.05;2.65;;;3.70;99.90;;;;;;2569145;23;20329;-72
2021/04/06 05:16:22;;;;;;;9.23;3.20;;;3.70;99.90;;;;;;2568328;23;20535;-72
2021/04/06 05:17:23;;;;;;;9.55;3.58;;;3.70;99.90;;;;;;2569063;23;20005;-72
2021/04/06 05:18:24;;;;;;;7.47;3.10;;;3.60;99.90;;;;;;2568432;23;20460;-71
2021/04/06 05:19:25;;;;;;;9.68;3.05;;;3.60;99.90;;;;;;2567739;23;20420;-71
2021/04/06 05:20:26;;;;;;;7.00;2.83;;;3.60;99.90;;;;;;2568679;23;20005;-71
2021/04/06 05:21:26;;;;;;;9.57;2.95;;;3.60;99.90;;;;;;2568655;23;20004;-72
2021/04/06 05:22:27;;;;;;;9.27;2.78;;;3.50;99.90;;;;;;2567239;23;20012;-72
2021/04/06 05:23:28;;;;;;;11.63;3.75;;;3.60;99.90;;;;;;2568237;23;20016;-72
2021/04/06 05:24:28;;;;;;;7.07;2.92;;;3.60;99.90;;;;;;2568112;23;20005;-72
2021/04/06 05:25:29;;;;;;;8.27;3.28;;;3.60;99.90;;;;;;2568861;23;20031;-72
2021/04/06 05:26:29;;;;;;;7.43;2.70;;;3.60;99.90;;;;;;2568839;23;20008;-72
2021/04/06 05:27:30;;;;;;;8.10;3.03;;;3.60;99.90;;;;;;2568418;23;20028;-72
2021/04/06 05:28:31;;;;;;;8.23;3.25;;;3.60;99.90;;;;;;2568779;23;20011;-72
2021/04/06 05:29:31;;;;;;;9.25;3.03;;;3.60;99.90;;;;;;2568128;23;20368;-72
2021/04/06 05:30:32;;;;;;;10.13;3.28;;;3.60;99.90;;;;;;2567859;23;20032;-72
2021/04/06 05:31:32;;;;;;;10.07;3.28;;;3.70;99.90;;;;;;2568620;23;20000;-72
2021/04/06 05:32:33;;;;;;;11.40;3.33;;;3.70;99.90;;;;;;2568002;23;20004;-72
2021/04/06 05:33:33;;;;;;;6.50;2.85;;;3.70;99.90;;;;;;2568665;23;20001;-72